createdAt,value
2018-07-25T00:01:04.546Z,55.090332
2018-07-25T00:02:20.391Z,56.011963
2018-07-25T00:03:36.269Z,56.536865
2018-07-25T00:04:52.262Z,56.536865
2018-07-25T00:06:08.171Z,56.512451
2018-07-25T00:07:24.083Z,56.311035
2018-07-25T00:08:39.988Z,56.011963
2018-07-25T00:09:55.878Z,55.584717
2018-07-25T00:11:11.808Z,55.584717
2018-07-25T00:12:27.714Z,55.511475
2018-07-25T00:13:43.630Z,55.810547
2018-07-25T00:14:59.563Z,55.810547
2018-07-25T00:16:15.461Z,55.688477
2018-07-25T00:17:31.379Z,55.712891
2018-07-25T00:18:47.275Z,55.584717
2018-07-25T00:20:03.172Z,55.688477
2018-07-25T00:21:19.075Z,55.810547
2018-07-25T00:22:34.968Z,55.712891
2018-07-25T00:23:50.866Z,55.615234
2018-07-25T00:25:06.824Z,56.109619
2018-07-25T00:26:22.690Z,56.109619
2018-07-25T00:27:38.605Z,56.109619
2018-07-25T00:28:54.464Z,55.914307
2018-07-25T00:30:10.351Z,55.810547
2018-07-25T00:31:26.214Z,55.712891
2018-07-25T00:32:42.144Z,56.036377
2018-07-25T00:33:58.031Z,55.914307
2018-07-25T00:35:13.899Z,56.140137
2018-07-25T00:36:29.786Z,56.109619
2018-07-25T00:37:45.671Z,55.810547
2018-07-25T00:39:01.639Z,56.011963
2018-07-25T00:40:17.572Z,56.311035
2018-07-25T00:41:33.446Z,56.109619
2018-07-25T00:42:49.315Z,56.536865
2018-07-25T00:44:05.266Z,56.439209
2018-07-25T00:45:21.196Z,56.439209
2018-07-25T00:46:37.077Z,56.439209
2018-07-25T00:47:52.958Z,56.738281
2018-07-25T00:49:08.894Z,56.640625
2018-07-25T00:50:24.767Z,56.640625
2018-07-25T00:51:40.648Z,56.640625
2018-07-25T00:52:56.542Z,56.536865
2018-07-25T00:54:12.440Z,56.237793
2018-07-25T00:55:28.349Z,56.237793
2018-07-25T00:56:44.193Z,56.237793
2018-07-25T00:58:00.207Z,56.341553
2018-07-25T00:59:16.128Z,56.536865
2018-07-25T01:00:32.036Z,56.341553
2018-07-25T01:01:47.919Z,56.341553
2018-07-25T01:03:03.805Z,56.567383
2018-07-25T01:04:19.698Z,56.890869
2018-07-25T01:05:35.602Z,56.994629
2018-07-25T01:06:51.517Z,57.067871
2018-07-25T01:08:07.389Z,56.994629
2018-07-25T01:09:23.289Z,56.567383
2018-07-25T01:10:39.215Z,56.665039
2018-07-25T01:11:55.084Z,57.391357
2018-07-25T01:13:10.958Z,58.221436
2018-07-25T01:14:26.868Z,58.721924
2018-07-25T01:15:42.753Z,58.422852
2018-07-25T01:16:58.619Z,58.294678
2018-07-25T01:18:14.530Z,57.891846
2018-07-25T01:19:30.491Z,57.4646
2018-07-25T01:20:46.403Z,57.366943
2018-07-25T01:22:02.313Z,57.366943
2018-07-25T01:23:18.181Z,57.391357
2018-07-25T01:24:34.066Z,57.391357
2018-07-25T01:25:49.942Z,57.293701
2018-07-25T01:27:05.840Z,57.092285
2018-07-25T01:28:21.730Z,57.092285
2018-07-25T01:29:37.605Z,57.293701
2018-07-25T01:30:53.540Z,57.391357
2018-07-25T01:32:09.395Z,57.263184
2018-07-25T01:33:25.273Z,56.964111
2018-07-25T01:34:41.159Z,57.165527
2018-07-25T01:35:57.086Z,57.165527
2018-07-25T01:37:12.962Z,57.891846
2018-07-25T01:38:28.894Z,58.02002
2018-07-25T01:39:44.753Z,58.02002
2018-07-25T01:41:00.657Z,58.319092
2018-07-25T01:42:16.572Z,57.995605
2018-07-25T01:43:32.492Z,58.190918
2018-07-25T01:44:48.387Z,58.093262
2018-07-25T01:46:04.327Z,57.891846
2018-07-25T01:47:20.216Z,57.995605
2018-07-25T01:48:36.120Z,57.995605
2018-07-25T01:49:52.056Z,57.995605
2018-07-25T01:51:07.948Z,57.891846
2018-07-25T01:52:23.838Z,57.794189
2018-07-25T01:53:39.753Z,57.891846
2018-07-25T01:54:55.644Z,58.093262
2018-07-25T01:56:11.552Z,58.319092
2018-07-25T01:57:27.453Z,58.319092
2018-07-25T01:58:43.354Z,58.850098
2018-07-25T01:59:59.263Z,59.552002
2018-07-25T02:01:15.191Z,59.14917
2018-07-25T02:02:31.053Z,58.319092
2018-07-25T02:03:46.955Z,58.422852
2018-07-25T02:05:02.829Z,58.746338
2018-07-25T02:06:19.746Z,58.422852
2018-07-25T02:07:35.650Z,58.850098
2018-07-25T02:08:51.569Z,59.350586
2018-07-25T02:10:07.440Z,59.747314
2018-07-25T02:11:23.324Z,59.979248
2018-07-25T02:12:39.209Z,59.649658
2018-07-25T02:13:55.089Z,59.649658
2018-07-25T02:15:10.964Z,59.448242
2018-07-25T02:16:26.844Z,59.649658
2018-07-25T02:17:42.716Z,59.851074
2018-07-25T02:18:58.589Z,60.180664
2018-07-25T02:20:14.474Z,60.479736
2018-07-25T02:21:30.419Z,60.375977
2018-07-25T02:22:46.495Z,60.27832
2018-07-25T02:24:02.376Z,60.479736
2018-07-25T02:25:18.252Z,60.375977
2018-07-25T02:26:34.159Z,60.375977
2018-07-25T02:27:50.062Z,60.778809
2018-07-25T02:29:05.965Z,60.778809
2018-07-25T02:30:21.877Z,60.681152
2018-07-25T02:31:37.769Z,60.375977
2018-07-25T02:32:53.674Z,60.375977
2018-07-25T02:34:09.614Z,60.479736
2018-07-25T02:35:25.494Z,60.705566
2018-07-25T02:36:41.417Z,60.906982
2018-07-25T02:37:57.361Z,61.010742
2018-07-25T02:39:13.267Z,61.206055
2018-07-25T02:40:29.202Z,61.309814
2018-07-25T02:41:45.092Z,61.407471
2018-07-25T02:43:00.962Z,61.108398
2018-07-25T02:44:16.897Z,61.108398
2018-07-25T02:45:32.780Z,61.407471
2018-07-25T02:46:48.653Z,61.407471
2018-07-25T02:48:04.548Z,61.407471
2018-07-25T02:49:20.446Z,61.938477
2018-07-25T02:50:36.317Z,62.042236
2018-07-25T02:51:52.223Z,62.042236
2018-07-25T02:53:08.127Z,62.573242
2018-07-25T02:54:24.063Z,62.670898
2018-07-25T02:55:39.974Z,62.469482
2018-07-25T02:56:56.006Z,62.469482
2018-07-25T02:58:11.766Z,62.17041
2018-07-25T02:59:27.693Z,61.737061
2018-07-25T03:00:43.568Z,61.541748
2018-07-25T03:01:59.447Z,61.639404
2018-07-25T03:03:15.364Z,61.737061
2018-07-25T03:04:31.264Z,61.737061
2018-07-25T03:05:47.290Z,61.84082
2018-07-25T03:07:03.239Z,61.84082
2018-07-25T03:08:19.108Z,61.938477
2018-07-25T03:09:35.007Z,61.639404
2018-07-25T03:10:50.916Z,62.06665
2018-07-25T03:12:06.837Z,62.17041
2018-07-25T03:13:22.745Z,62.268066
2018-07-25T03:14:38.617Z,62.139893
2018-07-25T03:15:54.525Z,62.139893
2018-07-25T03:17:10.434Z,61.737061
2018-07-25T03:18:26.405Z,61.938477
2018-07-25T03:19:42.278Z,62.139893
2018-07-25T03:20:58.140Z,61.84082
2018-07-25T03:22:14.044Z,61.938477
2018-07-25T03:23:29.957Z,62.042236
2018-07-25T03:24:45.837Z,62.042236
2018-07-25T03:26:01.731Z,62.469482
2018-07-25T03:27:17.633Z,62.341309
2018-07-25T03:28:33.501Z,62.042236
2018-07-25T03:29:49.382Z,61.84082
2018-07-25T03:31:05.292Z,61.84082
2018-07-25T03:32:21.190Z,62.17041
2018-07-25T03:33:37.074Z,62.799072
2018-07-25T03:34:53.938Z,62.469482
2018-07-25T03:36:09.797Z,62.60376
2018-07-25T03:37:25.789Z,62.799072
2018-07-25T03:38:41.599Z,62.799072
2018-07-25T03:39:57.494Z,62.902832
2018-07-25T03:41:13.431Z,62.371826
2018-07-25T03:42:29.332Z,62.17041
2018-07-25T03:43:45.223Z,61.871338
2018-07-25T03:45:01.139Z,61.737061
2018-07-25T03:46:17.029Z,61.639404
2018-07-25T03:47:32.915Z,61.541748
2018-07-25T03:48:48.791Z,61.639404
2018-07-25T03:50:04.650Z,61.340332
2018-07-25T03:51:20.548Z,61.541748
2018-07-25T03:52:36.447Z,62.06665
2018-07-25T03:53:52.354Z,62.17041
2018-07-25T03:55:08.242Z,62.701416
2018-07-25T03:56:24.135Z,62.902832
2018-07-25T03:57:40.042Z,63.000488
2018-07-25T03:58:55.954Z,63.104248
2018-07-25T04:00:11.838Z,62.701416
2018-07-25T04:01:27.742Z,62.5
2018-07-25T04:02:43.671Z,62.06665
2018-07-25T04:03:59.566Z,61.871338
2018-07-25T04:05:15.512Z,62.17041
2018-07-25T04:06:31.476Z,62.268066
2018-07-25T04:07:47.411Z,62.5
2018-07-25T04:09:03.292Z,62.268066
2018-07-25T04:10:19.201Z,62.06665
2018-07-25T04:11:35.093Z,61.968994
2018-07-25T04:12:50.990Z,62.17041
2018-07-25T04:14:06.902Z,62.06665
2018-07-25T04:15:22.848Z,62.268066
2018-07-25T04:16:38.773Z,62.268066
2018-07-25T04:17:54.646Z,62.268066
2018-07-25T04:19:10.557Z,62.268066
2018-07-25T04:20:26.445Z,62.268066
2018-07-25T04:21:43.392Z,62.06665
2018-07-25T04:22:59.294Z,61.938477
2018-07-25T04:24:15.210Z,61.968994
2018-07-25T04:25:31.105Z,62.17041
2018-07-25T04:26:47.018Z,62.06665
2018-07-25T04:28:02.929Z,62.268066
2018-07-25T04:29:18.808Z,61.84082
2018-07-25T04:30:34.712Z,61.84082
2018-07-25T04:31:50.643Z,61.737061
2018-07-25T04:33:06.558Z,61.639404
2018-07-25T04:34:22.459Z,61.541748
2018-07-25T04:35:38.360Z,61.639404
2018-07-25T04:36:54.327Z,61.84082
2018-07-25T04:38:10.267Z,61.639404
2018-07-25T04:39:26.205Z,62.042236
2018-07-25T04:40:42.142Z,61.737061
2018-07-25T04:41:58.083Z,62.042236
2018-07-25T04:43:14.015Z,62.17041
2018-07-25T04:44:29.991Z,62.268066
2018-07-25T04:45:45.895Z,62.268066
2018-07-25T04:47:01.882Z,62.268066
2018-07-25T04:48:17.822Z,62.469482
2018-07-25T04:49:33.728Z,62.042236
2018-07-25T04:50:49.612Z,61.938477
2018-07-25T04:52:05.506Z,61.938477
2018-07-25T04:53:21.413Z,61.737061
2018-07-25T04:54:37.316Z,61.639404
2018-07-25T04:55:53.185Z,61.737061
2018-07-25T04:57:09.118Z,61.737061
2018-07-25T04:58:25.009Z,62.341309
2018-07-25T04:59:40.904Z,62.438965
2018-07-25T05:03:53.287Z,62.237549
2018-07-25T05:05:09.215Z,62.237549
2018-07-25T05:06:25.177Z,62.670898
2018-07-25T05:07:41.086Z,62.768555
2018-07-25T05:08:57.012Z,63.171387
2018-07-25T05:10:12.941Z,63.40332
2018-07-25T05:11:28.857Z,63.275146
2018-07-25T05:12:44.756Z,62.969971
2018-07-25T05:14:00.675Z,62.744141
2018-07-25T05:15:16.537Z,62.438965
2018-07-25T05:16:32.430Z,62.969971
2018-07-25T05:17:48.395Z,63.372803
2018-07-25T05:19:04.312Z,63.604736
2018-07-25T05:20:20.257Z,63.470459
2018-07-25T05:21:36.182Z,62.841797
2018-07-25T05:22:52.157Z,62.640381
2018-07-25T05:24:10.873Z,62.542725
2018-07-25T05:25:26.815Z,62.939453
2018-07-25T05:26:42.735Z,62.408447
2018-07-25T05:27:58.631Z,62.841797
2018-07-25T05:29:14.543Z,62.744141
2018-07-25T05:30:30.431Z,62.841797
2018-07-25T05:31:46.329Z,62.512207
2018-07-25T05:33:02.242Z,62.310791
2018-07-25T05:34:18.119Z,62.512207
2018-07-25T05:35:34.017Z,62.609863
2018-07-25T05:36:49.920Z,62.609863
2018-07-25T05:38:05.900Z,62.512207
2018-07-25T05:39:21.727Z,62.384033
2018-07-25T05:40:37.624Z,62.481689
2018-07-25T05:41:53.538Z,62.811279
2018-07-25T05:43:09.450Z,62.780762
2018-07-25T05:44:25.399Z,62.579346
2018-07-25T05:45:41.349Z,62.481689
2018-07-25T05:46:57.230Z,62.683105
2018-07-25T05:48:13.132Z,62.579346
2018-07-25T05:49:29.072Z,62.481689
2018-07-25T05:50:44.901Z,62.884521
2018-07-25T05:52:00.801Z,62.884521
2018-07-25T05:53:16.688Z,62.884521
2018-07-25T05:54:32.575Z,62.652588
2018-07-25T05:55:48.447Z,62.353516
2018-07-25T05:57:04.332Z,62.353516
2018-07-25T05:58:20.258Z,62.322998
2018-07-25T05:59:36.135Z,62.554932
2018-07-25T06:00:52.038Z,62.451172
2018-07-25T06:02:07.936Z,62.121582
2018-07-25T06:03:23.977Z,62.121582
2018-07-25T06:04:39.852Z,61.82251
2018-07-25T06:05:55.781Z,61.82251
2018-07-25T06:07:11.603Z,61.395264
2018-07-25T06:08:27.519Z,61.291504
2018-07-25T06:09:43.423Z,61.291504
2018-07-25T06:10:59.331Z,61.090088
2018-07-25T06:12:15.196Z,61.590576
2018-07-25T06:13:31.087Z,61.49292
2018-07-25T06:14:46.972Z,60.961914
2018-07-25T06:16:02.845Z,61.065674
2018-07-25T06:17:18.736Z,60.864258
2018-07-25T06:18:34.660Z,60.662842
2018-07-25T06:19:50.583Z,60.662842
2018-07-25T06:21:06.427Z,61.193848
2018-07-25T06:22:22.296Z,60.766602
2018-07-25T06:23:38.231Z,60.565186
2018-07-25T06:24:54.148Z,60.461426
2018-07-25T06:26:10.071Z,60.461426
2018-07-25T06:27:25.990Z,60.235596
2018-07-25T06:28:41.894Z,59.936523
2018-07-25T06:29:57.786Z,60.266113
2018-07-25T06:31:13.742Z,60.235596
2018-07-25T06:32:29.610Z,60.437012
2018-07-25T06:33:45.516Z,60.437012
2018-07-25T06:35:01.398Z,60.333252
2018-07-25T06:36:17.340Z,60.333252
2018-07-25T06:37:33.369Z,60.534668
2018-07-25T06:38:49.274Z,60.83374
2018-07-25T06:40:05.210Z,60.803223
2018-07-25T06:41:21.132Z,60.333252
2018-07-25T06:42:37.052Z,60.437012
2018-07-25T06:43:52.985Z,60.632324
2018-07-25T06:45:08.882Z,60.50415
2018-07-25T06:46:24.799Z,60.308838
2018-07-25T06:47:40.731Z,60.27832
2018-07-25T06:48:56.643Z,59.875488
2018-07-25T06:50:12.520Z,59.80835
2018-07-25T06:51:28.467Z,59.576416
2018-07-25T06:52:44.379Z,59.381104
2018-07-25T06:54:00.279Z,58.880615
2018-07-25T06:55:16.141Z,58.679199
2018-07-25T06:56:32.094Z,59.179688
2018-07-25T06:57:47.991Z,59.381104
2018-07-25T06:59:03.879Z,59.381104
2018-07-25T07:00:19.764Z,59.381104
2018-07-25T07:01:35.689Z,59.381104
2018-07-25T07:02:51.609Z,59.277344
2018-07-25T07:04:07.551Z,59.381104
2018-07-25T07:05:23.444Z,59.777832
2018-07-25T07:06:39.425Z,59.777832
2018-07-25T07:07:55.255Z,59.448242
2018-07-25T07:09:11.125Z,59.25293
2018-07-25T07:10:27.079Z,59.14917
2018-07-25T07:11:43.034Z,58.953857
2018-07-25T07:12:58.949Z,59.350586
2018-07-25T07:14:14.830Z,59.521484
2018-07-25T07:15:30.723Z,59.94873
2018-07-25T07:16:46.665Z,60.247803
2018-07-25T07:18:02.594Z,60.449219
2018-07-25T07:19:18.492Z,60.247803
2018-07-25T07:20:34.382Z,61.047363
2018-07-25T07:21:50.368Z,61.346436
2018-07-25T07:23:06.300Z,60.949707
2018-07-25T07:24:22.239Z,60.650635
2018-07-25T07:25:38.117Z,60.449219
2018-07-25T07:26:54.036Z,60.748291
2018-07-25T07:28:09.951Z,60.546875
2018-07-25T07:29:25.896Z,60.345459
2018-07-25T07:30:41.781Z,60.119629
2018-07-25T07:31:57.830Z,60.546875
2018-07-25T07:33:13.743Z,60.949707
2018-07-25T07:34:29.746Z,61.444092
2018-07-25T07:35:45.621Z,61.114502
2018-07-25T07:37:01.514Z,61.517334
2018-07-25T07:38:17.392Z,61.346436
2018-07-25T07:39:33.330Z,61.248779
2018-07-25T07:40:49.210Z,61.846924
2018-07-25T07:42:05.140Z,62.341309
2018-07-25T07:43:21.039Z,62.341309
2018-07-25T07:44:36.975Z,62.145996
2018-07-25T07:45:52.875Z,62.713623
2018-07-25T07:47:08.759Z,62.542725
2018-07-25T07:48:24.652Z,62.542725
2018-07-25T07:49:40.598Z,62.243652
2018-07-25T07:50:56.556Z,62.542725
2018-07-25T07:52:12.476Z,62.939453
2018-07-25T07:53:28.385Z,62.542725
2018-07-25T07:54:44.380Z,63.238525
2018-07-25T07:56:00.264Z,63.208008
2018-07-25T07:57:16.170Z,63.739014
2018-07-25T07:58:32.069Z,64.337158
2018-07-25T07:59:48.026Z,64.73999
2018-07-25T08:01:04.051Z,65.06958
2018-07-25T08:02:20.019Z,64.96582
2018-07-25T08:03:35.983Z,64.172363
2018-07-25T08:04:51.914Z,63.739014
2018-07-25T08:06:07.797Z,63.94043
2018-07-25T08:07:23.720Z,63.842773
2018-07-25T08:08:39.627Z,64.111328
2018-07-25T08:09:55.567Z,64.337158
2018-07-25T08:11:11.537Z,63.61084
2018-07-25T08:12:27.443Z,63.708496
2018-07-25T08:13:43.409Z,63.909912
2018-07-25T08:14:59.527Z,63.110352
2018-07-25T08:16:15.549Z,63.909912
2018-07-25T08:17:31.616Z,64.208984
2018-07-25T08:18:47.491Z,64.508057
2018-07-25T08:20:03.535Z,64.709473
2018-07-25T08:21:19.336Z,65.106201
2018-07-25T08:22:35.256Z,65.075684
2018-07-25T08:23:51.171Z,64.575195
2018-07-25T08:25:07.138Z,65.802002
2018-07-25T08:26:23.111Z,65.472412
2018-07-25T08:27:39.002Z,66.333008
2018-07-25T08:28:54.947Z,66.003418
2018-07-25T08:30:10.886Z,65.734863
2018-07-25T08:31:26.795Z,65.704346
2018-07-25T08:32:42.692Z,66.003418
2018-07-25T08:33:58.628Z,66.30249
2018-07-25T08:35:15.545Z,66.003418
2018-07-25T08:36:31.457Z,65.405273
2018-07-25T08:37:47.424Z,64.807129
2018-07-25T08:39:03.325Z,65.203857
2018-07-25T08:40:19.267Z,65.50293
2018-07-25T08:41:35.220Z,66.101074
2018-07-25T08:42:51.106Z,66.503906
2018-07-25T08:44:07.048Z,65.106201
2018-07-25T08:45:23.026Z,65.405273
2018-07-25T08:46:38.942Z,65.802002
2018-07-25T08:47:55.846Z,65.307617
2018-07-25T08:49:11.725Z,66.534424
2018-07-25T08:50:27.699Z,66.003418
2018-07-25T08:51:43.633Z,65.50293
2018-07-25T08:52:59.527Z,65.270996
2018-07-25T08:54:15.487Z,65.008545
2018-07-25T08:55:31.406Z,65.039062
2018-07-25T08:56:47.283Z,64.709473
2018-07-25T08:58:03.227Z,65.203857
2018-07-25T08:59:19.168Z,65.075684
2018-07-25T09:00:35.090Z,64.477539
2018-07-25T09:01:51.055Z,64.276123
2018-07-25T09:03:06.844Z,63.977051
2018-07-25T09:04:22.756Z,63.677979
2018-07-25T09:05:38.770Z,63.781738
2018-07-25T09:06:54.746Z,63.549805
2018-07-25T09:08:10.674Z,62.524414
2018-07-25T09:09:26.576Z,62.854004
2018-07-25T09:10:42.615Z,62.652588
2018-07-25T09:11:58.505Z,62.652588
2018-07-25T09:13:14.464Z,62.854004
2018-07-25T09:14:30.493Z,63.049316
2018-07-25T09:15:46.561Z,63.049316
2018-07-25T09:17:02.432Z,62.62207
2018-07-25T09:18:18.353Z,63.018799
2018-07-25T09:19:34.337Z,62.95166
2018-07-25T09:20:50.260Z,63.049316
2018-07-25T09:22:06.135Z,61.755371
2018-07-25T09:23:22.040Z,61.853027
2018-07-25T09:24:37.958Z,62.353516
2018-07-25T09:25:53.909Z,61.254883
2018-07-25T09:27:09.828Z,61.157227
2018-07-25T09:28:25.722Z,61.157227
2018-07-25T09:29:41.691Z,61.230469
2018-07-25T09:30:57.648Z,61.358643
2018-07-25T09:32:13.553Z,61.724854
2018-07-25T09:33:29.430Z,61.627197
2018-07-25T09:34:45.354Z,61.425781
2018-07-25T09:36:01.252Z,61.627197
2018-07-25T09:37:17.162Z,61.627197
2018-07-25T09:38:33.041Z,61.102295
2018-07-25T09:39:48.946Z,60.998535
2018-07-25T09:41:04.927Z,60.699463
2018-07-25T09:42:20.808Z,60.601807
2018-07-25T09:43:36.699Z,60.107422
2018-07-25T09:44:52.607Z,59.70459
2018-07-25T09:46:08.533Z,60.107422
2018-07-25T09:47:24.454Z,61.395264
2018-07-25T09:48:40.394Z,61.26709
2018-07-25T09:49:56.325Z,60.571289
2018-07-25T09:51:12.257Z,60.546875
2018-07-25T09:52:29.188Z,59.979248
2018-07-25T09:53:45.131Z,59.979248
2018-07-25T09:55:01.072Z,59.777832
2018-07-25T09:56:17.017Z,59.509277
2018-07-25T09:57:32.969Z,59.70459
2018-07-25T09:58:49.071Z,58.984375
2018-07-25T10:00:04.990Z,59.381104
2018-07-25T10:01:20.924Z,59.381104
2018-07-25T10:02:36.846Z,60.107422
2018-07-25T10:03:52.823Z,59.80835
2018-07-25T10:05:08.821Z,59.576416
2018-07-25T10:06:24.739Z,58.880615
2018-07-25T10:07:40.704Z,58.38623
2018-07-25T10:08:56.719Z,58.581543
2018-07-25T10:10:12.630Z,58.483887
2018-07-25T10:11:28.553Z,58.355713
2018-07-25T10:12:44.429Z,57.659912
2018-07-25T10:14:00.369Z,57.489014
2018-07-25T10:15:16.455Z,58.184814
2018-07-25T10:16:32.257Z,57.989502
2018-07-25T10:17:48.117Z,58.282471
2018-07-25T10:19:04.042Z,58.056641
2018-07-25T10:20:19.945Z,58.1604
2018-07-25T10:21:35.890Z,58.258057
2018-07-25T10:22:51.770Z,58.38623
2018-07-25T10:24:07.715Z,58.782959
2018-07-25T10:25:23.590Z,58.984375
2018-07-25T10:26:39.549Z,59.381104
2018-07-25T10:27:55.536Z,59.179688
2018-07-25T10:29:11.439Z,59.777832
2018-07-25T10:30:27.358Z,59.350586
2018-07-25T10:31:43.307Z,59.350586
2018-07-25T10:32:59.322Z,59.25293
2018-07-25T10:34:15.156Z,59.124756
2018-07-25T10:35:31.061Z,57.830811
2018-07-25T10:36:47.056Z,58.428955
2018-07-25T10:38:03.032Z,58.428955
2018-07-25T10:39:18.966Z,58.752441
2018-07-25T10:40:34.871Z,58.92334
2018-07-25T10:41:50.807Z,58.129883
2018-07-25T10:43:06.761Z,58.129883
2018-07-25T10:44:22.673Z,58.825684
2018-07-25T10:45:38.654Z,58.398438
2018-07-25T10:46:54.644Z,57.702637
2018-07-25T10:48:10.706Z,57.507324
2018-07-25T10:49:26.635Z,57.60498
2018-07-25T10:50:42.552Z,57.702637
2018-07-25T10:51:58.478Z,58.502197
2018-07-25T10:53:14.438Z,58.398438
2018-07-25T10:54:30.391Z,58.374023
2018-07-25T10:55:46.401Z,58.074951
2018-07-25T10:57:02.286Z,58.203125
2018-07-25T10:58:18.156Z,58.001709
2018-07-25T10:59:34.076Z,57.977295
2018-07-25T11:03:46.706Z,57.977295
2018-07-25T11:05:02.598Z,58.374023
2018-07-25T11:06:18.573Z,57.476807
2018-07-25T11:07:34.467Z,58.172607
2018-07-25T11:08:50.402Z,58.47168
2018-07-25T11:10:06.359Z,57.904053
2018-07-25T11:11:22.267Z,58.270264
2018-07-25T11:12:38.207Z,58.343506
2018-07-25T11:13:54.127Z,58.172607
2018-07-25T11:15:10.040Z,58.24585
2018-07-25T11:16:25.972Z,58.544922
2018-07-25T11:17:41.936Z,58.837891
2018-07-25T11:18:57.834Z,57.946777
2018-07-25T11:20:13.785Z,58.343506
2018-07-25T11:21:29.679Z,59.039307
2018-07-25T11:22:45.609Z,59.039307
2018-07-25T11:24:01.534Z,58.544922
2018-07-25T11:25:17.476Z,59.136963
2018-07-25T11:26:33.372Z,59.307861
2018-07-25T11:27:49.293Z,58.813477
2018-07-25T11:29:05.174Z,59.008789
2018-07-25T11:30:21.066Z,58.880615
2018-07-25T11:31:37.017Z,58.71582
2018-07-25T11:32:53.082Z,57.818604
2018-07-25T11:34:08.890Z,58.02002
2018-07-25T11:35:24.816Z,59.008789
2018-07-25T11:36:40.711Z,59.112549
2018-07-25T11:37:56.664Z,58.685303
2018-07-25T11:39:12.601Z,58.557129
2018-07-25T11:40:28.503Z,58.288574
2018-07-25T11:41:44.437Z,58.557129
2018-07-25T11:43:00.356Z,58.752441
2018-07-25T11:44:16.311Z,58.1604
2018-07-25T11:45:32.272Z,57.965088
2018-07-25T11:46:48.213Z,57.666016
2018-07-25T11:48:04.284Z,57.763672
2018-07-25T11:49:20.279Z,57.269287
2018-07-25T11:50:36.193Z,57.000732
2018-07-25T11:51:52.103Z,57.397461
2018-07-25T11:53:08.059Z,57.794189
2018-07-25T11:54:23.987Z,57.4646
2018-07-25T11:55:40.078Z,57.495117
2018-07-25T11:56:55.807Z,57.763672
2018-07-25T11:58:11.765Z,56.848145
2018-07-25T11:59:28.760Z,57.073975
2018-07-25T12:00:44.649Z,57.93457
2018-07-25T12:02:00.565Z,55.456543
2018-07-25T12:03:16.462Z,56.677246
2018-07-25T12:04:32.427Z,58.062744
2018-07-25T12:05:48.368Z,58.630371
2018-07-25T12:07:04.339Z,58.526611
2018-07-25T12:08:20.291Z,58.92334
2018-07-25T12:09:36.330Z,59.191895
2018-07-25T12:10:52.284Z,58.69751
2018-07-25T12:12:08.217Z,58.898926
2018-07-25T12:13:24.164Z,59.191895
2018-07-25T12:14:40.120Z,59.490967
2018-07-25T12:15:56.044Z,59.393311
2018-07-25T12:17:11.980Z,59.393311
2018-07-25T12:18:27.916Z,59.191895
2018-07-25T12:19:43.913Z,59.320068
2018-07-25T12:20:59.897Z,59.222412
2018-07-25T12:22:15.780Z,59.521484
2018-07-25T12:23:31.685Z,59.588623
2018-07-25T12:24:47.713Z,57.116699
2018-07-25T12:26:03.646Z,55.731201
2018-07-25T12:27:20.544Z,55.334473
2018-07-25T12:28:36.458Z,55.505371
2018-07-25T12:29:52.391Z,54.91333
2018-07-25T12:31:08.495Z,55.206299
2018-07-25T12:32:24.434Z,54.589844
2018-07-25T12:33:40.381Z,54.486084
2018-07-25T12:34:56.343Z,54.486084
2018-07-25T12:36:12.317Z,53.991699
2018-07-25T12:37:28.279Z,54.614258
2018-07-25T12:38:44.217Z,55.700684
2018-07-25T12:40:00.160Z,56.195068
2018-07-25T12:41:16.138Z,55.377197
2018-07-25T12:42:32.045Z,54.882812
2018-07-25T12:43:48.028Z,53.22876
2018-07-25T12:45:04.125Z,53.723145
2018-07-25T12:46:20.047Z,54.315186
2018-07-25T12:47:36.193Z,53.00293
2018-07-25T12:48:52.111Z,52.484131
2018-07-25T12:50:08.025Z,52.978516
2018-07-25T12:51:23.955Z,53.869629
2018-07-25T12:52:39.824Z,51.623535
2018-07-25T12:53:55.793Z,51.12915
2018-07-25T12:55:11.816Z,53.796387
2018-07-25T12:56:27.756Z,51.397705
2018-07-25T12:57:43.680Z,52.484131
2018-07-25T12:58:59.590Z,53.179932
2018-07-25T13:00:15.576Z,54.760742
2018-07-25T13:01:31.557Z,55.053711
2018-07-25T13:02:47.551Z,57.061768
2018-07-25T13:04:03.391Z,57.727051
2018-07-25T13:08:15.729Z,52.709961
2018-07-25T13:09:31.635Z,52.313232
2018-07-25T13:10:47.528Z,53.277588
2018-07-25T13:12:03.474Z,54.632568
2018-07-25T13:13:19.417Z,54.510498
2018-07-25T13:14:35.343Z,54.803467
2018-07-25T13:15:51.254Z,54.608154
2018-07-25T13:17:07.164Z,53.692627
2018-07-25T13:18:23.116Z,53.326416
2018-07-25T13:19:39.003Z,54.534912
2018-07-25T13:20:54.899Z,51.251221
2018-07-25T13:22:10.858Z,49.371338
2018-07-25T13:23:26.746Z,50.683594
2018-07-25T13:24:42.640Z,51.153564
2018-07-25T13:25:58.553Z,50.262451
2018-07-25T13:27:14.455Z,49.475098
2018-07-25T13:28:30.369Z,49.078369
2018-07-25T13:29:46.290Z,47.375488
2018-07-25T13:31:03.142Z,47.772217
2018-07-25T13:32:19.041Z,46.97876
2018-07-25T13:33:34.965Z,45.996094
2018-07-25T13:34:50.891Z,44.708252
2018-07-25T13:36:06.882Z,43.426514
2018-07-25T13:37:22.746Z,43.920898
2018-07-25T13:38:38.607Z,44.909668
2018-07-25T13:39:54.506Z,43.920898
2018-07-25T13:41:10.367Z,45.300293
2018-07-25T13:42:26.235Z,46.09375
2018-07-25T13:43:42.152Z,46.166992
2018-07-25T13:44:58.081Z,45.477295
2018-07-25T13:46:14.136Z,45.007324
2018-07-25T13:47:30.021Z,46.112061
2018-07-25T13:48:45.889Z,46.112061
2018-07-25T13:50:01.812Z,46.313477
2018-07-25T13:51:17.692Z,46.508789
2018-07-25T13:52:33.595Z,48.065186
2018-07-25T13:53:49.495Z,46.386719
2018-07-25T13:55:05.394Z,46.264648
2018-07-25T13:56:21.295Z,45.574951
2018-07-25T13:57:37.135Z,45.776367
2018-07-25T13:58:53.014Z,46.636963
2018-07-25T14:00:09.939Z,44.665527
2018-07-25T14:01:26.836Z,43.798828
2018-07-25T14:02:42.746Z,44.567871
2018-07-25T14:03:58.635Z,44.9646
2018-07-25T14:05:14.597Z,42.718506
2018-07-25T14:06:30.461Z,44.0979
2018-07-25T14:07:46.338Z,42.694092
2018-07-25T14:09:02.411Z,42.401123
2018-07-25T14:10:18.313Z,42.419434
2018-07-25T14:11:34.331Z,41.412354
2018-07-25T14:12:50.108Z,41.412354
2018-07-25T14:14:05.993Z,42.303467
2018-07-25T14:15:21.904Z,41.412354
2018-07-25T14:16:37.794Z,42.102051
2018-07-25T14:17:53.735Z,42.199707
2018-07-25T14:19:09.630Z,42.401123
2018-07-25T14:20:25.520Z,44.250488
2018-07-25T14:21:41.420Z,43.95752
2018-07-25T14:22:57.334Z,48.565674
2018-07-25T14:24:13.300Z,48.291016
2018-07-25T14:25:29.100Z,46.594238
2018-07-25T14:26:45.146Z,46.398926
2018-07-25T14:28:00.990Z,45.611572
2018-07-25T14:29:16.965Z,45.507812
2018-07-25T14:30:32.896Z,46.417236
2018-07-25T14:31:48.778Z,46.661377
2018-07-25T14:33:04.647Z,48.535156
2018-07-25T14:34:20.584Z,49.224854
2018-07-25T14:35:36.525Z,49.523926
2018-07-25T14:36:52.567Z,48.4375
2018-07-25T14:38:08.491Z,48.931885
2018-07-25T14:39:24.412Z,50.140381